sensor_id;sensor_type;location;lat;lon;timestamp;P1;durP1;ratioP1;P2;durP2;ratioP2
36359;SDS011;22388;52.432;20.662;2023-03-01T00:02:17;92.60;;;45.35;;
36359;SDS011;22388;52.432;20.662;2023-03-01T00:04:42;86.47;;;44.05;;
36359;SDS011;22388;52.432;20.662;2023-03-01T00:07:08;95.00;;;44.67;;
36359;SDS011;22388;52.432;20.662;2023-03-01T00:09:33;86.85;;;42.95;;
36359;SDS011;22388;52.432;20.662;2023-03-01T00:12:01;91.75;;;45.72;;
36359;SDS011;22388;52.432;20.662;2023-03-01T00:14:27;88.35;;;44.20;;
36359;SDS011;22388;52.432;20.662;2023-03-01T00:16:53;87.53;;;41.40;;
36359;SDS011;22388;52.432;20.662;2023-03-01T00:19:18;85.70;;;42.92;;
36359;SDS011;22388;52.432;20.662;2023-03-01T00:21:45;91.60;;;43.28;;
36359;SDS011;22388;52.432;20.662;2023-03-01T00:24:12;87.72;;;41.97;;
36359;SDS011;22388;52.432;20.662;2023-03-01T00:26:37;88.78;;;43.70;;
36359;SDS011;22388;52.432;20.662;2023-03-01T00:29:05;91.93;;;44.22;;
36359;SDS011;22388;52.432;20.662;2023-03-01T00:31:31;86.97;;;42.35;;
36359;SDS011;22388;52.432;20.662;2023-03-01T00:33:59;91.47;;;42.80;;
36359;SDS011;22388;52.432;20.662;2023-03-01T00:36:27;88.00;;;40.45;;
36359;SDS011;22388;52.432;20.662;2023-03-01T00:38:55;90.13;;;41.30;;
36359;SDS011;22388;52.432;20.662;2023-03-01T00:41:21;85.35;;;42.05;;
36359;SDS011;22388;52.432;20.662;2023-03-01T00:43:51;88.53;;;42.78;;
36359;SDS011;22388;52.432;20.662;2023-03-01T00:46:20;82.95;;;40.90;;
36359;SDS011;22388;52.432;20.662;2023-03-01T00:48:51;86.93;;;43.88;;
36359;SDS011;22388;52.432;20.662;2023-03-01T00:51:18;89.25;;;42.97;;
36359;SDS011;22388;52.432;20.662;2023-03-01T00:53:45;88.00;;;43.22;;
36359;SDS011;22388;52.432;20.662;2023-03-01T00:56:12;86.55;;;41.45;;
36359;SDS011;22388;52.432;20.662;2023-03-01T00:58:38;86.03;;;41.22;;
36359;SDS011;22388;52.432;20.662;2023-03-01T01:01:11;88.97;;;42.15;;
36359;SDS011;22388;52.432;20.662;2023-03-01T01:03:52;86.93;;;40.85;;
36359;SDS011;22388;52.432;20.662;2023-03-01T01:06:23;85.00;;;42.00;;
36359;SDS011;22388;52.432;20.662;2023-03-01T01:08:50;89.27;;;42.30;;
36359;SDS011;22388;52.432;20.662;2023-03-01T01:11:17;91.80;;;43.22;;
36359;SDS011;22388;52.432;20.662;2023-03-01T01:13:44;93.32;;;42.50;;
36359;SDS011;22388;52.432;20.662;2023-03-01T01:16:10;91.38;;;42.65;;
36359;SDS011;22388;52.432;20.662;2023-03-01T01:18:36;94.97;;;42.67;;
36359;SDS011;22388;52.432;20.662;2023-03-01T01:21:09;83.28;;;42.25;;
36359;SDS011;22388;52.432;20.662;2023-03-01T01:23:36;91.55;;;41.70;;
36359;SDS011;22388;52.432;20.662;2023-03-01T01:26:03;89.25;;;40.70;;
36359;SDS011;22388;52.432;20.662;2023-03-01T01:28:34;95.10;;;42.92;;
36359;SDS011;22388;52.432;20.662;2023-03-01T01:31:00;83.38;;;41.22;;
36359;SDS011;22388;52.432;20.662;2023-03-01T01:33:26;84.55;;;41.10;;
36359;SDS011;22388;52.432;20.662;2023-03-01T01:35:52;90.00;;;42.35;;
36359;SDS011;22388;52.432;20.662;2023-03-01T01:38:18;83.80;;;40.58;;
36359;SDS011;22388;52.432;20.662;2023-03-01T01:40:47;80.75;;;39.38;;
36359;SDS011;22388;52.432;20.662;2023-03-01T01:43:24;82.30;;;40.83;;
36359;SDS011;22388;52.432;20.662;2023-03-01T01:45:52;83.32;;;40.88;;
36359;SDS011;22388;52.432;20.662;2023-03-01T01:48:22;83.15;;;41.42;;
36359;SDS011;22388;52.432;20.662;2023-03-01T01:50:56;82.65;;;39.92;;
36359;SDS011;22388;52.432;20.662;2023-03-01T01:53:24;84.63;;;41.15;;
36359;SDS011;22388;52.432;20.662;2023-03-01T01:55:52;79.80;;;39.30;;
36359;SDS011;22388;52.432;20.662;2023-03-01T01:58:19;83.00;;;40.63;;
36359;SDS011;22388;52.432;20.662;2023-03-01T02:00:46;84.28;;;40.53;;
36359;SDS011;22388;52.432;20.662;2023-03-01T02:03:14;85.75;;;39.20;;
36359;SDS011;22388;52.432;20.662;2023-03-01T02:05:51;83.13;;;39.35;;
36359;SDS011;22388;52.432;20.662;2023-03-01T02:08:19;79.80;;;38.72;;
36359;SDS011;22388;52.432;20.662;2023-03-01T02:10:45;84.90;;;39.03;;
36359;SDS011;22388;52.432;20.662;2023-03-01T02:13:11;85.45;;;39.60;;
36359;SDS011;22388;52.432;20.662;2023-03-01T02:15:38;75.55;;;38.22;;
36359;SDS011;22388;52.432;20.662;2023-03-01T02:18:05;78.20;;;38.70;;
36359;SDS011;22388;52.432;20.662;2023-03-01T02:23:10;77.50;;;37.30;;
36359;SDS011;22388;52.432;20.662;2023-03-01T02:30:34;73.05;;;38.22;;
36359;SDS011;22388;52.432;20.662;2023-03-01T02:33:00;80.93;;;38.05;;
36359;SDS011;22388;52.432;20.662;2023-03-01T02:35:37;79.80;;;38.55;;
36359;SDS011;22388;52.432;20.662;2023-03-01T02:38:03;75.57;;;36.17;;
36359;SDS011;22388;52.432;20.662;2023-03-01T02:40:31;80.20;;;38.30;;
36359;SDS011;22388;52.432;20.662;2023-03-01T02:42:59;82.38;;;39.10;;
36359;SDS011;22388;52.432;20.662;2023-03-01T02:45:25;79.65;;;37.92;;
36359;SDS011;22388;52.432;20.662;2023-03-01T02:47:55;80.47;;;37.90;;
36359;SDS011;22388;52.432;20.662;2023-03-01T02:55:38;80.57;;;37.17;;
36359;SDS011;22388;52.432;20.662;2023-03-01T02:58:04;75.45;;;37.28;;
36359;SDS011;22388;52.432;20.662;2023-03-01T03:00:35;79.70;;;36.80;;
36359;SDS011;22388;52.432;20.662;2023-03-01T03:03:05;77.10;;;37.15;;
36359;SDS011;22388;52.432;20.662;2023-03-01T03:05:31;77.47;;;37.75;;
36359;SDS011;22388;52.432;20.662;2023-03-01T03:08:00;74.55;;;37.75;;
36359;SDS011;22388;52.432;20.662;2023-03-01T03:10:31;74.20;;;36.83;;
36359;SDS011;22388;52.432;20.662;2023-03-01T03:13:02;77.45;;;37.78;;
36359;SDS011;22388;52.432;20.662;2023-03-01T03:15:30;80.40;;;38.00;;
36359;SDS011;22388;52.432;20.662;2023-03-01T03:17:57;81.22;;;37.83;;
36359;SDS011;22388;52.432;20.662;2023-03-01T03:20:24;84.72;;;40.58;;
36359;SDS011;22388;52.432;20.662;2023-03-01T03:22:52;84.40;;;41.33;;
36359;SDS011;22388;52.432;20.662;2023-03-01T03:25:19;82.68;;;39.15;;
36359;SDS011;22388;52.432;20.662;2023-03-01T03:27:46;76.38;;;38.60;;
36359;SDS011;22388;52.432;20.662;2023-03-01T03:30:16;82.15;;;38.25;;
36359;SDS011;22388;52.432;20.662;2023-03-01T03:32:43;75.68;;;38.63;;
36359;SDS011;22388;52.432;20.662;2023-03-01T03:35:18;73.15;;;37.95;;
36359;SDS011;22388;52.432;20.662;2023-03-01T03:37:47;76.80;;;37.80;;
36359;SDS011;22388;52.432;20.662;2023-03-01T03:40:33;56.75;;;29.92;;
36359;SDS011;22388;52.432;20.662;2023-03-01T03:43:00;73.05;;;36.65;;
36359;SDS011;22388;52.432;20.662;2023-03-01T03:45:27;74.10;;;37.33;;
36359;SDS011;22388;52.432;20.662;2023-03-01T03:47:52;77.47;;;37.72;;
36359;SDS011;22388;52.432;20.662;2023-03-01T03:50:18;76.30;;;36.88;;
36359;SDS011;22388;52.432;20.662;2023-03-01T03:52:44;74.78;;;37.15;;
36359;SDS011;22388;52.432;20.662;2023-03-01T03:55:10;81.65;;;36.38;;
36359;SDS011;22388;52.432;20.662;2023-03-01T03:57:37;75.25;;;37.20;;
36359;SDS011;22388;52.432;20.662;2023-03-01T04:00:04;83.53;;;37.85;;
36359;SDS011;22388;52.432;20.662;2023-03-01T04:02:31;75.38;;;36.65;;
36359;SDS011;22388;52.432;20.662;2023-03-01T04:04:57;73.72;;;36.35;;
36359;SDS011;22388;52.432;20.662;2023-03-01T04:07:22;77.50;;;35.83;;
36359;SDS011;22388;52.432;20.662;2023-03-01T04:09:48;78.35;;;37.03;;
36359;SDS011;22388;52.432;20.662;2023-03-01T04:12:13;71.55;;;38.20;;
36359;SDS011;22388;52.432;20.662;2023-03-01T04:14:39;76.10;;;36.45;;
36359;SDS011;22388;52.432;20.662;2023-03-01T04:17:05;79.95;;;37.72;;
36359;SDS011;22388;52.432;20.662;2023-03-01T04:19:33;71.50;;;35.85;;
36359;SDS011;22388;52.432;20.662;2023-03-01T04:22:01;68.25;;;34.75;;
36359;SDS011;22388;52.432;20.662;2023-03-01T04:24:34;75.03;;;37.00;;
36359;SDS011;22388;52.432;20.662;2023-03-01T04:27:00;71.10;;;35.70;;
36359;SDS011;22388;52.432;20.662;2023-03-01T04:29:26;75.82;;;36.95;;
36359;SDS011;22388;52.432;20.662;2023-03-01T04:31:52;73.68;;;35.08;;
36359;SDS011;22388;52.432;20.662;2023-03-01T04:34:18;70.10;;;35.92;;
36359;SDS011;22388;52.432;20.662;2023-03-01T04:36:43;70.05;;;34.50;;
36359;SDS011;22388;52.432;20.662;2023-03-01T04:39:09;71.32;;;34.40;;
36359;SDS011;22388;52.432;20.662;2023-03-01T04:41:38;70.63;;;33.13;;
36359;SDS011;22388;52.432;20.662;2023-03-01T04:44:04;71.80;;;33.90;;
36359;SDS011;22388;52.432;20.662;2023-03-01T04:46:31;67.80;;;33.97;;
36359;SDS011;22388;52.432;20.662;2023-03-01T04:48:56;65.90;;;33.47;;
36359;SDS011;22388;52.432;20.662;2023-03-01T04:51:22;60.67;;;31.38;;
36359;SDS011;22388;52.432;20.662;2023-03-01T04:53:48;66.72;;;33.25;;
36359;SDS011;22388;52.432;20.662;2023-03-01T04:56:13;72.63;;;32.83;;
36359;SDS011;22388;52.432;20.662;2023-03-01T04:58:39;69.85;;;32.33;;
36359;SDS011;22388;52.432;20.662;2023-03-01T05:01:09;63.63;;;31.77;;
36359;SDS011;22388;52.432;20.662;2023-03-01T05:03:43;73.05;;;32.00;;
36359;SDS011;22388;52.432;20.662;2023-03-01T05:06:09;64.18;;;31.13;;
36359;SDS011;22388;52.432;20.662;2023-03-01T05:08:36;63.05;;;30.67;;
36359;SDS011;22388;52.432;20.662;2023-03-01T05:11:05;62.47;;;30.60;;
36359;SDS011;22388;52.432;20.662;2023-03-01T05:13:34;57.10;;;30.25;;
36359;SDS011;22388;52.432;20.662;2023-03-01T05:16:01;62.95;;;31.95;;
36359;SDS011;22388;52.432;20.662;2023-03-01T05:18:28;61.45;;;30.75;;
36359;SDS011;22388;52.432;20.662;2023-03-01T05:20:56;60.40;;;31.52;;
36359;SDS011;22388;52.432;20.662;2023-03-01T05:23:29;72.30;;;33.20;;
36359;SDS011;22388;52.432;20.662;2023-03-01T05:25:59;63.00;;;29.65;;
36359;SDS011;22388;52.432;20.662;2023-03-01T05:28:26;60.33;;;28.40;;
36359;SDS011;22388;52.432;20.662;2023-03-01T05:30:51;59.38;;;29.20;;
36359;SDS011;22388;52.432;20.662;2023-03-01T05:33:17;54.03;;;28.30;;
36359;SDS011;22388;52.432;20.662;2023-03-01T05:35:44;62.00;;;29.63;;
36359;SDS011;22388;52.432;20.662;2023-03-01T05:38:10;65.18;;;30.80;;
36359;SDS011;22388;52.432;20.662;2023-03-01T05:40:38;62.08;;;32.45;;
36359;SDS011;22388;52.432;20.662;2023-03-01T05:43:04;61.88;;;31.02;;
36359;SDS011;22388;52.432;20.662;2023-03-01T05:45:30;70.32;;;29.98;;
36359;SDS011;22388;52.432;20.662;2023-03-01T05:47:57;61.60;;;29.52;;
36359;SDS011;22388;52.432;20.662;2023-03-01T05:50:25;60.90;;;30.15;;
36359;SDS011;22388;52.432;20.662;2023-03-01T05:53:00;63.47;;;30.45;;
36359;SDS011;22388;52.432;20.662;2023-03-01T05:55:28;61.28;;;29.92;;
36359;SDS011;22388;52.432;20.662;2023-03-01T05:57:54;59.40;;;28.80;;
36359;SDS011;22388;52.432;20.662;2023-03-01T06:00:20;58.42;;;30.50;;
36359;SDS011;22388;52.432;20.662;2023-03-01T06:02:49;58.75;;;28.17;;
36359;SDS011;22388;52.432;20.662;2023-03-01T06:05:17;60.50;;;29.33;;
36359;SDS011;22388;52.432;20.662;2023-03-01T06:07:43;59.45;;;30.00;;
36359;SDS011;22388;52.432;20.662;2023-03-01T06:10:09;62.28;;;30.42;;
36359;SDS011;22388;52.432;20.662;2023-03-01T06:12:36;59.90;;;30.10;;
36359;SDS011;22388;52.432;20.662;2023-03-01T06:15:03;63.67;;;30.05;;
36359;SDS011;22388;52.432;20.662;2023-03-01T06:17:30;64.00;;;31.17;;
36359;SDS011;22388;52.432;20.662;2023-03-01T06:19:57;64.32;;;31.33;;
36359;SDS011;22388;52.432;20.662;2023-03-01T06:22:23;68.65;;;32.65;;
36359;SDS011;22388;52.432;20.662;2023-03-01T06:24:49;76.10;;;32.80;;
36359;SDS011;22388;52.432;20.662;2023-03-01T06:27:15;68.15;;;32.90;;
36359;SDS011;22388;52.432;20.662;2023-03-01T06:29:40;64.88;;;32.15;;
36359;SDS011;22388;52.432;20.662;2023-03-01T06:32:06;66.28;;;33.22;;
36359;SDS011;22388;52.432;20.662;2023-03-01T06:34:33;66.78;;;32.70;;
36359;SDS011;22388;52.432;20.662;2023-03-01T06:36:59;69.63;;;33.35;;
36359;SDS011;22388;52.432;20.662;2023-03-01T06:39:24;73.65;;;32.90;;
36359;SDS011;22388;52.432;20.662;2023-03-01T06:41:50;74.32;;;33.75;;
36359;SDS011;22388;52.432;20.662;2023-03-01T06:44:15;72.15;;;35.15;;
36359;SDS011;22388;52.432;20.662;2023-03-01T06:46:41;79.35;;;38.13;;
36359;SDS011;22388;52.432;20.662;2023-03-01T06:49:06;82.47;;;38.35;;
36359;SDS011;22388;52.432;20.662;2023-03-01T06:51:35;88.40;;;39.72;;
36359;SDS011;22388;52.432;20.662;2023-03-01T06:54:02;75.18;;;35.47;;
36359;SDS011;22388;52.432;20.662;2023-03-01T06:56:29;73.30;;;34.20;;
36359;SDS011;22388;52.432;20.662;2023-03-01T06:58:55;73.43;;;35.28;;
36359;SDS011;22388;52.432;20.662;2023-03-01T07:01:21;73.25;;;35.28;;
36359;SDS011;22388;52.432;20.662;2023-03-01T07:03:46;72.43;;;33.95;;
36359;SDS011;22388;52.432;20.662;2023-03-01T07:06:12;70.07;;;33.70;;
36359;SDS011;22388;52.432;20.662;2023-03-01T07:08:37;72.25;;;33.60;;
36359;SDS011;22388;52.432;20.662;2023-03-01T07:11:03;68.80;;;34.00;;
36359;SDS011;22388;52.432;20.662;2023-03-01T07:13:31;74.05;;;35.47;;
36359;SDS011;22388;52.432;20.662;2023-03-01T07:15:57;78.47;;;36.42;;
36359;SDS011;22388;52.432;20.662;2023-03-01T07:18:22;72.75;;;34.65;;
36359;SDS011;22388;52.432;20.662;2023-03-01T07:20:48;76.00;;;36.25;;
36359;SDS011;22388;52.432;20.662;2023-03-01T07:23:14;76.32;;;39.42;;
36359;SDS011;22388;52.432;20.662;2023-03-01T07:25:40;74.78;;;36.60;;
36359;SDS011;22388;52.432;20.662;2023-03-01T07:28:05;72.60;;;35.53;;
36359;SDS011;22388;52.432;20.662;2023-03-01T07:30:31;69.70;;;34.95;;
36359;SDS011;22388;52.432;20.662;2023-03-01T07:32:57;68.47;;;33.78;;
36359;SDS011;22388;52.432;20.662;2023-03-01T07:35:24;65.95;;;32.83;;
36359;SDS011;22388;52.432;20.662;2023-03-01T07:37:50;65.57;;;32.67;;
36359;SDS011;22388;52.432;20.662;2023-03-01T07:40:16;71.85;;;35.90;;
36359;SDS011;22388;52.432;20.662;2023-03-01T07:42:42;78.03;;;34.72;;
36359;SDS011;22388;52.432;20.662;2023-03-01T07:45:08;71.63;;;35.17;;
36359;SDS011;22388;52.432;20.662;2023-03-01T07:47:34;71.18;;;33.95;;
36359;SDS011;22388;52.432;20.662;2023-03-01T07:49:59;73.38;;;35.33;;
36359;SDS011;22388;52.432;20.662;2023-03-01T07:52:26;78.07;;;35.00;;
36359;SDS011;22388;52.432;20.662;2023-03-01T07:54:52;68.50;;;35.67;;
36359;SDS011;22388;52.432;20.662;2023-03-01T07:57:17;71.53;;;34.72;;
36359;SDS011;22388;52.432;20.662;2023-03-01T07:59:43;73.03;;;33.80;;
36359;SDS011;22388;52.432;20.662;2023-03-01T08:02:09;65.50;;;32.15;;
36359;SDS011;22388;52.432;20.662;2023-03-01T08:04:35;60.97;;;31.02;;
36359;SDS011;22388;52.432;20.662;2023-03-01T08:07:01;63.28;;;30.48;;
36359;SDS011;22388;52.432;20.662;2023-03-01T08:09:29;63.70;;;32.50;;
36359;SDS011;22388;52.432;20.662;2023-03-01T08:11:55;58.30;;;29.33;;
36359;SDS011;22388;52.432;20.662;2023-03-01T08:14:21;61.08;;;28.80;;
36359;SDS011;22388;52.432;20.662;2023-03-01T08:16:48;58.05;;;30.10;;
36359;SDS011;22388;52.432;20.662;2023-03-01T08:19:14;63.28;;;31.10;;
36359;SDS011;22388;52.432;20.662;2023-03-01T08:21:40;63.97;;;32.17;;
36359;SDS011;22388;52.432;20.662;2023-03-01T08:24:06;64.90;;;30.65;;
36359;SDS011;22388;52.432;20.662;2023-03-01T08:26:32;59.33;;;29.63;;
36359;SDS011;22388;52.432;20.662;2023-03-01T08:28:59;72.38;;;33.63;;
36359;SDS011;22388;52.432;20.662;2023-03-01T08:31:29;60.97;;;32.25;;
36359;SDS011;22388;52.432;20.662;2023-03-01T08:34:01;68.30;;;31.58;;
36359;SDS011;22388;52.432;20.662;2023-03-01T08:36:29;61.38;;;30.67;;
36359;SDS011;22388;52.432;20.662;2023-03-01T08:38:57;62.65;;;30.38;;
36359;SDS011;22388;52.432;20.662;2023-03-01T08:41:23;69.55;;;32.65;;
36359;SDS011;22388;52.432;20.662;2023-03-01T08:43:49;69.50;;;32.78;;
36359;SDS011;22388;52.432;20.662;2023-03-01T08:46:15;69.97;;;31.25;;
36359;SDS011;22388;52.432;20.662;2023-03-01T08:48:41;68.38;;;31.40;;
36359;SDS011;22388;52.432;20.662;2023-03-01T08:51:12;62.55;;;30.95;;
36359;SDS011;22388;52.432;20.662;2023-03-01T08:53:41;61.28;;;29.60;;
36359;SDS011;22388;52.432;20.662;2023-03-01T08:56:07;64.53;;;31.42;;
36359;SDS011;22388;52.432;20.662;2023-03-01T08:58:33;60.20;;;28.65;;
36359;SDS011;22388;52.432;20.662;2023-03-01T09:00:59;62.53;;;29.63;;
36359;SDS011;22388;52.432;20.662;2023-03-01T09:03:25;60.60;;;28.90;;
36359;SDS011;22388;52.432;20.662;2023-03-01T09:05:51;55.95;;;28.10;;
36359;SDS011;22388;52.432;20.662;2023-03-01T09:08:17;65.90;;;30.23;;
36359;SDS011;22388;52.432;20.662;2023-03-01T09:10:44;63.20;;;31.25;;
36359;SDS011;22388;52.432;20.662;2023-03-01T09:13:09;58.92;;;27.75;;
36359;SDS011;22388;52.432;20.662;2023-03-01T09:15:38;53.28;;;28.33;;
36359;SDS011;22388;52.432;20.662;2023-03-01T09:18:04;52.92;;;27.80;;
36359;SDS011;22388;52.432;20.662;2023-03-01T09:20:30;59.17;;;27.98;;
36359;SDS011;22388;52.432;20.662;2023-03-01T09:22:56;60.60;;;29.63;;
36359;SDS011;22388;52.432;20.662;2023-03-01T09:25:22;54.42;;;28.35;;
36359;SDS011;22388;52.432;20.662;2023-03-01T09:27:51;53.50;;;28.23;;
36359;SDS011;22388;52.432;20.662;2023-03-01T09:30:17;52.42;;;28.35;;
36359;SDS011;22388;52.432;20.662;2023-03-01T09:32:43;60.42;;;29.58;;
36359;SDS011;22388;52.432;20.662;2023-03-01T09:35:10;56.70;;;27.20;;
36359;SDS011;22388;52.432;20.662;2023-03-01T09:37:36;51.75;;;27.75;;
36359;SDS011;22388;52.432;20.662;2023-03-01T09:40:14;53.75;;;28.60;;
36359;SDS011;22388;52.432;20.662;2023-03-01T09:43:02;51.22;;;27.05;;
36359;SDS011;22388;52.432;20.662;2023-03-01T09:45:38;56.53;;;29.55;;
36359;SDS011;22388;52.432;20.662;2023-03-01T09:48:06;55.55;;;28.55;;
36359;SDS011;22388;52.432;20.662;2023-03-01T09:50:47;59.05;;;27.30;;
36359;SDS011;22388;52.432;20.662;2023-03-01T10:00:49;45.90;;;24.70;;
36359;SDS011;22388;52.432;20.662;2023-03-01T10:06:04;47.47;;;25.80;;
36359;SDS011;22388;52.432;20.662;2023-03-01T10:11:30;52.25;;;27.17;;
36359;SDS011;22388;52.432;20.662;2023-03-01T10:20:43;51.08;;;25.55;;
36359;SDS011;22388;52.432;20.662;2023-03-01T10:22:51;49.13;;;25.70;;
36359;SDS011;22388;52.432;20.662;2023-03-01T10:25:25;48.92;;;25.20;;
36359;SDS011;22388;52.432;20.662;2023-03-01T10:28:02;45.28;;;24.55;;
36359;SDS011;22388;52.432;20.662;2023-03-01T10:30:35;50.00;;;24.95;;
36359;SDS011;22388;52.432;20.662;2023-03-01T10:33:49;48.88;;;24.42;;
36359;SDS011;22388;52.432;20.662;2023-03-01T10:35:56;47.30;;;25.88;;
36359;SDS011;22388;52.432;20.662;2023-03-01T10:38:22;43.70;;;24.38;;
36359;SDS011;22388;52.432;20.662;2023-03-01T10:43:19;53.50;;;25.95;;
36359;SDS011;22388;52.432;20.662;2023-03-01T10:45:46;48.42;;;25.95;;
36359;SDS011;22388;52.432;20.662;2023-03-01T10:50:50;46.60;;;25.23;;
36359;SDS011;22388;52.432;20.662;2023-03-01T10:53:45;41.75;;;24.38;;
36359;SDS011;22388;52.432;20.662;2023-03-01T10:56:14;50.83;;;25.98;;
36359;SDS011;22388;52.432;20.662;2023-03-01T11:01:35;47.88;;;25.85;;
36359;SDS011;22388;52.432;20.662;2023-03-01T11:04:11;52.35;;;27.08;;
36359;SDS011;22388;52.432;20.662;2023-03-01T11:06:39;46.60;;;25.77;;
36359;SDS011;22388;52.432;20.662;2023-03-01T11:09:15;49.50;;;26.23;;
36359;SDS011;22388;52.432;20.662;2023-03-01T11:11:45;46.58;;;26.35;;
36359;SDS011;22388;52.432;20.662;2023-03-01T11:14:18;46.40;;;25.80;;
36359;SDS011;22388;52.432;20.662;2023-03-01T11:20:02;49.40;;;27.13;;
36359;SDS011;22388;52.432;20.662;2023-03-01T11:22:32;45.67;;;27.17;;
36359;SDS011;22388;52.432;20.662;2023-03-01T11:24:59;46.35;;;25.35;;
36359;SDS011;22388;52.432;20.662;2023-03-01T11:27:26;50.88;;;26.05;;
36359;SDS011;22388;52.432;20.662;2023-03-01T11:29:59;51.00;;;26.92;;
36359;SDS011;22388;52.432;20.662;2023-03-01T11:32:34;49.55;;;26.92;;
36359;SDS011;22388;52.432;20.662;2023-03-01T11:37:38;48.72;;;26.48;;
36359;SDS011;22388;52.432;20.662;2023-03-01T11:40:13;47.33;;;27.10;;
36359;SDS011;22388;52.432;20.662;2023-03-01T11:42:46;49.22;;;26.27;;
36359;SDS011;22388;52.432;20.662;2023-03-01T11:45:43;47.75;;;26.02;;
36359;SDS011;22388;52.432;20.662;2023-03-01T11:48:29;48.22;;;26.77;;
36359;SDS011;22388;52.432;20.662;2023-03-01T12:08:40;47.17;;;25.15;;
36359;SDS011;22388;52.432;20.662;2023-03-01T12:17:26;51.13;;;25.30;;
36359;SDS011;22388;52.432;20.662;2023-03-01T12:22:46;41.17;;;24.15;;
36359;SDS011;22388;52.432;20.662;2023-03-01T12:44:29;40.78;;;24.33;;
36359;SDS011;22388;52.432;20.662;2023-03-01T12:50:12;45.03;;;24.50;;
36359;SDS011;22388;52.432;20.662;2023-03-01T12:52:46;42.53;;;24.20;;
36359;SDS011;22388;52.432;20.662;2023-03-01T12:55:26;37.30;;;22.10;;
36359;SDS011;22388;52.432;20.662;2023-03-01T12:58:24;42.03;;;23.83;;
36359;SDS011;22388;52.432;20.662;2023-03-01T13:06:45;43.05;;;24.55;;
36359;SDS011;22388;52.432;20.662;2023-03-01T13:09:35;42.90;;;24.83;;
36359;SDS011;22388;52.432;20.662;2023-03-01T13:17:47;38.40;;;23.35;;
36359;SDS011;22388;52.432;20.662;2023-03-01T13:20:27;38.35;;;23.52;;
36359;SDS011;22388;52.432;20.662;2023-03-01T13:23:05;37.55;;;22.58;;
36359;SDS011;22388;52.432;20.662;2023-03-01T13:25:35;37.97;;;23.70;;
36359;SDS011;22388;52.432;20.662;2023-03-01T13:31:01;41.53;;;25.05;;
36359;SDS011;22388;52.432;20.662;2023-03-01T13:35:54;36.78;;;22.25;;
36359;SDS011;22388;52.432;20.662;2023-03-01T13:41:09;35.53;;;23.52;;
36359;SDS011;22388;52.432;20.662;2023-03-01T13:43:35;36.88;;;24.13;;
36359;SDS011;22388;52.432;20.662;2023-03-01T13:46:23;36.97;;;24.45;;
36359;SDS011;22388;52.432;20.662;2023-03-01T13:48:50;33.65;;;23.23;;
36359;SDS011;22388;52.432;20.662;2023-03-01T13:51:20;37.63;;;23.52;;
36359;SDS011;22388;52.432;20.662;2023-03-01T13:53:50;40.53;;;23.77;;
36359;SDS011;22388;52.432;20.662;2023-03-01T13:56:21;36.20;;;23.75;;
36359;SDS011;22388;52.432;20.662;2023-03-01T14:01:38;36.30;;;23.50;;
36359;SDS011;22388;52.432;20.662;2023-03-01T14:04:17;40.35;;;23.42;;
36359;SDS011;22388;52.432;20.662;2023-03-01T14:06:46;38.55;;;23.20;;
36359;SDS011;22388;52.432;20.662;2023-03-01T14:09:24;35.80;;;23.08;;
36359;SDS011;22388;52.432;20.662;2023-03-01T14:14:44;42.55;;;25.08;;
36359;SDS011;22388;52.432;20.662;2023-03-01T14:19:46;42.22;;;24.83;;
36359;SDS011;22388;52.432;20.662;2023-03-01T14:27:21;39.47;;;24.58;;
36359;SDS011;22388;52.432;20.662;2023-03-01T14:29:56;36.92;;;22.40;;
36359;SDS011;22388;52.432;20.662;2023-03-01T14:32:29;38.42;;;22.10;;
36359;SDS011;22388;52.432;20.662;2023-03-01T14:34:56;37.63;;;22.70;;
36359;SDS011;22388;52.432;20.662;2023-03-01T14:39:58;38.28;;;22.92;;
36359;SDS011;22388;52.432;20.662;2023-03-01T14:42:26;38.80;;;23.08;;
36359;SDS011;22388;52.432;20.662;2023-03-01T14:44:54;39.85;;;23.00;;
36359;SDS011;22388;52.432;20.662;2023-03-01T14:47:28;38.22;;;23.20;;
36359;SDS011;22388;52.432;20.662;2023-03-01T14:52:35;38.58;;;23.20;;
36359;SDS011;22388;52.432;20.662;2023-03-01T14:55:07;40.72;;;23.55;;
36359;SDS011;22388;52.432;20.662;2023-03-01T14:57:43;38.25;;;21.27;;
36359;SDS011;22388;52.432;20.662;2023-03-01T15:00:10;34.97;;;20.42;;
36359;SDS011;22388;52.432;20.662;2023-03-01T15:02:41;33.80;;;20.40;;
36359;SDS011;22388;52.432;20.662;2023-03-01T15:05:08;34.92;;;20.77;;
36359;SDS011;22388;52.432;20.662;2023-03-01T15:07:36;33.88;;;19.67;;
36359;SDS011;22388;52.432;20.662;2023-03-01T15:10:04;36.80;;;21.17;;
36359;SDS011;22388;52.432;20.662;2023-03-01T15:14:56;36.15;;;21.08;;
36359;SDS011;22388;52.432;20.662;2023-03-01T15:17:32;37.55;;;22.00;;
36359;SDS011;22388;52.432;20.662;2023-03-01T15:20:04;38.20;;;21.55;;
36359;SDS011;22388;52.432;20.662;2023-03-01T15:22:43;31.52;;;20.10;;
36359;SDS011;22388;52.432;20.662;2023-03-01T15:25:23;35.65;;;21.33;;
36359;SDS011;22388;52.432;20.662;2023-03-01T15:27:51;34.45;;;20.58;;
36359;SDS011;22388;52.432;20.662;2023-03-01T15:30:18;39.58;;;20.98;;
36359;SDS011;22388;52.432;20.662;2023-03-01T15:32:47;41.22;;;21.45;;
36359;SDS011;22388;52.432;20.662;2023-03-01T15:41:21;40.85;;;20.63;;
36359;SDS011;22388;52.432;20.662;2023-03-01T15:43:52;36.13;;;22.02;;
36359;SDS011;22388;52.432;20.662;2023-03-01T15:48:47;47.72;;;22.92;;
36359;SDS011;22388;52.432;20.662;2023-03-01T15:51:17;41.15;;;23.83;;
36359;SDS011;22388;52.432;20.662;2023-03-01T15:53:48;47.60;;;24.13;;
36359;SDS011;22388;52.432;20.662;2023-03-01T15:56:15;43.22;;;23.85;;
36359;SDS011;22388;52.432;20.662;2023-03-01T15:58:41;40.67;;;20.83;;
36359;SDS011;22388;52.432;20.662;2023-03-01T16:01:15;43.83;;;21.52;;
36359;SDS011;22388;52.432;20.662;2023-03-01T16:03:42;44.42;;;22.23;;
36359;SDS011;22388;52.432;20.662;2023-03-01T16:06:11;43.03;;;22.63;;
36359;SDS011;22388;52.432;20.662;2023-03-01T16:08:37;41.60;;;22.67;;
36359;SDS011;22388;52.432;20.662;2023-03-01T16:11:09;48.00;;;27.05;;
36359;SDS011;22388;52.432;20.662;2023-03-01T16:13:40;41.40;;;24.25;;
36359;SDS011;22388;52.432;20.662;2023-03-01T16:16:06;47.50;;;25.17;;
36359;SDS011;22388;52.432;20.662;2023-03-01T16:18:34;50.88;;;28.13;;
36359;SDS011;22388;52.432;20.662;2023-03-01T16:20:59;50.95;;;27.65;;
36359;SDS011;22388;52.432;20.662;2023-03-01T16:23:25;52.75;;;28.55;;
36359;SDS011;22388;52.432;20.662;2023-03-01T16:25:50;48.60;;;26.80;;
36359;SDS011;22388;52.432;20.662;2023-03-01T16:28:16;67.65;;;34.15;;
36359;SDS011;22388;52.432;20.662;2023-03-01T16:30:45;63.33;;;30.92;;
36359;SDS011;22388;52.432;20.662;2023-03-01T16:33:12;59.83;;;31.30;;
36359;SDS011;22388;52.432;20.662;2023-03-01T16:35:41;56.60;;;31.02;;
36359;SDS011;22388;52.432;20.662;2023-03-01T16:38:06;77.20;;;38.65;;
36359;SDS011;22388;52.432;20.662;2023-03-01T16:40:32;58.58;;;29.58;;
36359;SDS011;22388;52.432;20.662;2023-03-01T16:42:58;65.35;;;32.35;;